sensor_id;sensor_type;location;lat;lon;timestamp;P1;durP1;ratioP1;P2;durP2;ratioP2
55170;SDS011;41060;47.510;8.680;2023-05-15T00:02:06;2.25;;;1.50;;
55170;SDS011;41060;47.510;8.680;2023-05-15T00:04:33;3.40;;;2.30;;
55170;SDS011;41060;47.510;8.680;2023-05-15T00:06:59;2.97;;;2.10;;
55170;SDS011;41060;47.510;8.680;2023-05-15T00:09:26;5.40;;;1.92;;
55170;SDS011;41060;47.510;8.680;2023-05-15T00:11:53;3.83;;;2.10;;
55170;SDS011;41060;47.510;8.680;2023-05-15T00:14:21;3.97;;;2.13;;
55170;SDS011;41060;47.510;8.680;2023-05-15T00:16:48;5.30;;;2.15;;
55170;SDS011;41060;47.510;8.680;2023-05-15T00:19:14;3.47;;;1.73;;
55170;SDS011;41060;47.510;8.680;2023-05-15T00:21:41;5.72;;;2.30;;
55170;SDS011;41060;47.510;8.680;2023-05-15T00:24:08;6.32;;;2.38;;
55170;SDS011;41060;47.510;8.680;2023-05-15T00:26:34;3.58;;;2.08;;
55170;SDS011;41060;47.510;8.680;2023-05-15T00:29:03;2.95;;;1.95;;
55170;SDS011;41060;47.510;8.680;2023-05-15T00:31:32;5.72;;;2.33;;
55170;SDS011;41060;47.510;8.680;2023-05-15T00:33:58;6.07;;;2.90;;
55170;SDS011;41060;47.510;8.680;2023-05-15T00:36:25;7.30;;;2.50;;
55170;SDS011;41060;47.510;8.680;2023-05-15T00:38:52;5.68;;;2.92;;
55170;SDS011;41060;47.510;8.680;2023-05-15T00:41:19;6.05;;;2.85;;
55170;SDS011;41060;47.510;8.680;2023-05-15T00:43:48;6.07;;;2.60;;
55170;SDS011;41060;47.510;8.680;2023-05-15T00:46:16;3.53;;;2.28;;
55170;SDS011;41060;47.510;8.680;2023-05-15T00:48:47;4.15;;;2.72;;
55170;SDS011;41060;47.510;8.680;2023-05-15T00:51:16;4.45;;;2.67;;
55170;SDS011;41060;47.510;8.680;2023-05-15T00:53:42;4.80;;;2.75;;
55170;SDS011;41060;47.510;8.680;2023-05-15T00:56:10;4.57;;;2.38;;
55170;SDS011;41060;47.510;8.680;2023-05-15T00:58:38;8.50;;;2.97;;
55170;SDS011;41060;47.510;8.680;2023-05-15T01:01:05;3.53;;;2.00;;
55170;SDS011;41060;47.510;8.680;2023-05-15T01:03:31;4.20;;;1.88;;
55170;SDS011;41060;47.510;8.680;2023-05-15T01:06:02;3.90;;;1.30;;
55170;SDS011;41060;47.510;8.680;2023-05-15T01:08:31;1.75;;;1.27;;
55170;SDS011;41060;47.510;8.680;2023-05-15T01:11:05;2.50;;;1.15;;
55170;SDS011;41060;47.510;8.680;2023-05-15T01:13:33;2.40;;;1.15;;
55170;SDS011;41060;47.510;8.680;2023-05-15T01:16:00;2.13;;;1.52;;
55170;SDS011;41060;47.510;8.680;2023-05-15T01:18:27;2.20;;;1.50;;
55170;SDS011;41060;47.510;8.680;2023-05-15T01:21:05;3.03;;;1.55;;
55170;SDS011;41060;47.510;8.680;2023-05-15T01:23:51;3.22;;;1.55;;
55170;SDS011;41060;47.510;8.680;2023-05-15T01:26:34;3.45;;;1.30;;
55170;SDS011;41060;47.510;8.680;2023-05-15T01:29:19;4.13;;;1.90;;
55170;SDS011;41060;47.510;8.680;2023-05-15T01:31:53;2.53;;;1.42;;
55170;SDS011;41060;47.510;8.680;2023-05-15T01:34:26;2.50;;;1.45;;
55170;SDS011;41060;47.510;8.680;2023-05-15T01:36:59;3.03;;;1.50;;
55170;SDS011;41060;47.510;8.680;2023-05-15T01:39:29;3.97;;;1.75;;
55170;SDS011;41060;47.510;8.680;2023-05-15T01:41:59;2.90;;;1.25;;
55170;SDS011;41060;47.510;8.680;2023-05-15T01:44:31;3.40;;;1.27;;
55170;SDS011;41060;47.510;8.680;2023-05-15T01:47:10;3.72;;;1.35;;
55170;SDS011;41060;47.510;8.680;2023-05-15T01:49:42;3.72;;;1.58;;
55170;SDS011;41060;47.510;8.680;2023-05-15T01:52:13;2.87;;;1.43;;
55170;SDS011;41060;47.510;8.680;2023-05-15T01:54:44;3.28;;;2.00;;
55170;SDS011;41060;47.510;8.680;2023-05-15T01:57:13;3.30;;;2.03;;
55170;SDS011;41060;47.510;8.680;2023-05-15T01:59:41;3.55;;;1.55;;
55170;SDS011;41060;47.510;8.680;2023-05-15T02:02:09;4.43;;;1.60;;
55170;SDS011;41060;47.510;8.680;2023-05-15T02:04:37;2.15;;;1.40;;
55170;SDS011;41060;47.510;8.680;2023-05-15T02:07:05;3.50;;;1.30;;
55170;SDS011;41060;47.510;8.680;2023-05-15T02:09:33;2.90;;;1.40;;
55170;SDS011;41060;47.510;8.680;2023-05-15T02:12:02;2.35;;;1.00;;
55170;SDS011;41060;47.510;8.680;2023-05-15T02:14:34;2.75;;;1.35;;
55170;SDS011;41060;47.510;8.680;2023-05-15T02:17:05;2.90;;;1.20;;
55170;SDS011;41060;47.510;8.680;2023-05-15T02:19:36;2.05;;;1.35;;
55170;SDS011;41060;47.510;8.680;2023-05-15T02:22:04;4.85;;;1.42;;
55170;SDS011;41060;47.510;8.680;2023-05-15T02:24:31;1.42;;;0.88;;
55170;SDS011;41060;47.510;8.680;2023-05-15T02:26:59;3.17;;;0.80;;
55170;SDS011;41060;47.510;8.680;2023-05-15T02:29:30;2.05;;;1.15;;
55170;SDS011;41060;47.510;8.680;2023-05-15T02:32:11;3.92;;;1.30;;
55170;SDS011;41060;47.510;8.680;2023-05-15T02:34:48;2.42;;;1.30;;
55170;SDS011;41060;47.510;8.680;2023-05-15T02:37:22;1.60;;;1.02;;
55170;SDS011;41060;47.510;8.680;2023-05-15T02:39:52;3.05;;;1.23;;
55170;SDS011;41060;47.510;8.680;2023-05-15T02:42:24;2.63;;;1.15;;
55170;SDS011;41060;47.510;8.680;2023-05-15T02:44:51;2.22;;;1.30;;
55170;SDS011;41060;47.510;8.680;2023-05-15T02:47:20;1.85;;;1.02;;
55170;SDS011;41060;47.510;8.680;2023-05-15T02:49:49;1.80;;;1.00;;
55170;SDS011;41060;47.510;8.680;2023-05-15T02:52:16;3.15;;;1.30;;
55170;SDS011;41060;47.510;8.680;2023-05-15T02:54:43;2.05;;;0.88;;
55170;SDS011;41060;47.510;8.680;2023-05-15T02:57:10;4.43;;;0.98;;
55170;SDS011;41060;47.510;8.680;2023-05-15T02:59:36;5.22;;;1.30;;
55170;SDS011;41060;47.510;8.680;2023-05-15T03:02:03;3.45;;;1.45;;
55170;SDS011;41060;47.510;8.680;2023-05-15T03:04:32;1.65;;;0.90;;
55170;SDS011;41060;47.510;8.680;2023-05-15T03:06:58;2.42;;;1.30;;
55170;SDS011;41060;47.510;8.680;2023-05-15T03:09:24;1.80;;;1.20;;
55170;SDS011;41060;47.510;8.680;2023-05-15T03:11:52;1.73;;;1.00;;
55170;SDS011;41060;47.510;8.680;2023-05-15T03:14:19;1.50;;;1.10;;
55170;SDS011;41060;47.510;8.680;2023-05-15T03:16:45;1.88;;;1.05;;
55170;SDS011;41060;47.510;8.680;2023-05-15T03:19:13;2.15;;;1.10;;
55170;SDS011;41060;47.510;8.680;2023-05-15T03:21:41;2.63;;;0.95;;
55170;SDS011;41060;47.510;8.680;2023-05-15T03:24:07;1.80;;;1.10;;
55170;SDS011;41060;47.510;8.680;2023-05-15T03:26:34;2.38;;;1.33;;
55170;SDS011;41060;47.510;8.680;2023-05-15T03:29:01;2.22;;;1.20;;
55170;SDS011;41060;47.510;8.680;2023-05-15T03:31:28;4.88;;;1.70;;
55170;SDS011;41060;47.510;8.680;2023-05-15T03:33:55;2.20;;;1.08;;
55170;SDS011;41060;47.510;8.680;2023-05-15T03:36:21;6.03;;;1.23;;
55170;SDS011;41060;47.510;8.680;2023-05-15T03:38:49;2.20;;;1.20;;
55170;SDS011;41060;47.510;8.680;2023-05-15T03:41:16;2.20;;;1.27;;
55170;SDS011;41060;47.510;8.680;2023-05-15T03:43:43;2.25;;;1.00;;
55170;SDS011;41060;47.510;8.680;2023-05-15T03:46:09;2.30;;;1.40;;
55170;SDS011;41060;47.510;8.680;2023-05-15T03:48:38;2.30;;;1.42;;
55170;SDS011;41060;47.510;8.680;2023-05-15T03:51:04;3.88;;;1.50;;
55170;SDS011;41060;47.510;8.680;2023-05-15T03:53:31;2.40;;;1.30;;
55170;SDS011;41060;47.510;8.680;2023-05-15T03:55:59;4.40;;;2.05;;
55170;SDS011;41060;47.510;8.680;2023-05-15T03:58:26;2.83;;;1.90;;
55170;SDS011;41060;47.510;8.680;2023-05-15T04:00:52;1.83;;;1.40;;
55170;SDS011;41060;47.510;8.680;2023-05-15T04:03:20;3.47;;;1.58;;
55170;SDS011;41060;47.510;8.680;2023-05-15T04:05:47;3.92;;;1.70;;
55170;SDS011;41060;47.510;8.680;2023-05-15T04:08:14;2.63;;;1.67;;
55170;SDS011;41060;47.510;8.680;2023-05-15T04:10:41;2.55;;;1.50;;
55170;SDS011;41060;47.510;8.680;2023-05-15T04:13:09;2.47;;;1.45;;
55170;SDS011;41060;47.510;8.680;2023-05-15T04:15:35;2.45;;;1.48;;
55170;SDS011;41060;47.510;8.680;2023-05-15T04:18:06;3.05;;;1.60;;
55170;SDS011;41060;47.510;8.680;2023-05-15T04:20:32;2.88;;;1.42;;
55170;SDS011;41060;47.510;8.680;2023-05-15T04:22:59;2.65;;;1.65;;
55170;SDS011;41060;47.510;8.680;2023-05-15T04:25:28;3.25;;;1.73;;
55170;SDS011;41060;47.510;8.680;2023-05-15T04:27:58;3.15;;;2.13;;
55170;SDS011;41060;47.510;8.680;2023-05-15T04:30:26;2.38;;;1.40;;
55170;SDS011;41060;47.510;8.680;2023-05-15T04:32:53;2.30;;;1.30;;
55170;SDS011;41060;47.510;8.680;2023-05-15T04:35:20;2.65;;;1.48;;
55170;SDS011;41060;47.510;8.680;2023-05-15T04:37:46;2.95;;;1.58;;
55170;SDS011;41060;47.510;8.680;2023-05-15T04:40:14;1.92;;;1.15;;
55170;SDS011;41060;47.510;8.680;2023-05-15T04:42:40;2.58;;;1.58;;
55170;SDS011;41060;47.510;8.680;2023-05-15T04:45:07;3.47;;;1.38;;
55170;SDS011;41060;47.510;8.680;2023-05-15T04:47:36;2.30;;;1.25;;
55170;SDS011;41060;47.510;8.680;2023-05-15T04:50:03;2.75;;;1.50;;
55170;SDS011;41060;47.510;8.680;2023-05-15T04:52:30;2.42;;;1.50;;
55170;SDS011;41060;47.510;8.680;2023-05-15T04:54:57;3.00;;;1.77;;
55170;SDS011;41060;47.510;8.680;2023-05-15T04:57:24;3.78;;;1.75;;
55170;SDS011;41060;47.510;8.680;2023-05-15T04:59:51;1.92;;;1.33;;
55170;SDS011;41060;47.510;8.680;2023-05-15T05:02:19;2.83;;;1.48;;
55170;SDS011;41060;47.510;8.680;2023-05-15T05:04:47;2.40;;;1.40;;
55170;SDS011;41060;47.510;8.680;2023-05-15T05:07:14;1.60;;;1.30;;
55170;SDS011;41060;47.510;8.680;2023-05-15T05:09:41;2.08;;;1.30;;
55170;SDS011;41060;47.510;8.680;2023-05-15T05:12:08;2.92;;;1.58;;
55170;SDS011;41060;47.510;8.680;2023-05-15T05:14:38;2.47;;;1.20;;
55170;SDS011;41060;47.510;8.680;2023-05-15T05:17:06;1.88;;;1.17;;
55170;SDS011;41060;47.510;8.680;2023-05-15T05:19:34;4.45;;;1.30;;
55170;SDS011;41060;47.510;8.680;2023-05-15T05:22:02;2.40;;;1.52;;
55170;SDS011;41060;47.510;8.680;2023-05-15T05:24:30;4.60;;;1.20;;
55170;SDS011;41060;47.510;8.680;2023-05-15T05:26:58;1.48;;;1.00;;
55170;SDS011;41060;47.510;8.680;2023-05-15T05:29:25;1.88;;;1.13;;
55170;SDS011;41060;47.510;8.680;2023-05-15T05:31:52;2.20;;;1.20;;
55170;SDS011;41060;47.510;8.680;2023-05-15T05:34:18;2.25;;;1.27;;
55170;SDS011;41060;47.510;8.680;2023-05-15T05:36:45;2.97;;;1.40;;
55170;SDS011;41060;47.510;8.680;2023-05-15T05:39:14;2.20;;;1.00;;
55170;SDS011;41060;47.510;8.680;2023-05-15T05:41:41;2.88;;;1.30;;
55170;SDS011;41060;47.510;8.680;2023-05-15T05:44:08;2.72;;;1.30;;
55170;SDS011;41060;47.510;8.680;2023-05-15T05:46:38;2.90;;;1.70;;
55170;SDS011;41060;47.510;8.680;2023-05-15T05:49:04;3.53;;;1.70;;
55170;SDS011;41060;47.510;8.680;2023-05-15T05:51:31;3.30;;;1.40;;
55170;SDS011;41060;47.510;8.680;2023-05-15T05:53:58;3.15;;;1.90;;
55170;SDS011;41060;47.510;8.680;2023-05-15T05:56:26;5.22;;;1.60;;
55170;SDS011;41060;47.510;8.680;2023-05-15T05:58:52;2.60;;;1.67;;
55170;SDS011;41060;47.510;8.680;2023-05-15T06:01:21;2.22;;;1.42;;
55170;SDS011;41060;47.510;8.680;2023-05-15T06:03:47;4.80;;;1.98;;
55170;SDS011;41060;47.510;8.680;2023-05-15T06:06:14;5.15;;;2.25;;
55170;SDS011;41060;47.510;8.680;2023-05-15T06:08:41;3.85;;;1.98;;
55170;SDS011;41060;47.510;8.680;2023-05-15T06:11:07;3.40;;;1.50;;
55170;SDS011;41060;47.510;8.680;2023-05-15T06:13:35;4.00;;;2.13;;
55170;SDS011;41060;47.510;8.680;2023-05-15T06:16:02;3.80;;;2.53;;
55170;SDS011;41060;47.510;8.680;2023-05-15T06:18:29;2.63;;;2.13;;
55170;SDS011;41060;47.510;8.680;2023-05-15T06:20:56;3.35;;;2.30;;
55170;SDS011;41060;47.510;8.680;2023-05-15T06:23:24;6.25;;;2.78;;
55170;SDS011;41060;47.510;8.680;2023-05-15T06:25:51;4.72;;;1.70;;
55170;SDS011;41060;47.510;8.680;2023-05-15T06:28:18;3.88;;;2.78;;
55170;SDS011;41060;47.510;8.680;2023-05-15T06:30:46;3.58;;;2.30;;
55170;SDS011;41060;47.510;8.680;2023-05-15T06:33:13;7.65;;;2.75;;
55170;SDS011;41060;47.510;8.680;2023-05-15T06:35:39;3.58;;;2.40;;
55170;SDS011;41060;47.510;8.680;2023-05-15T06:38:07;3.58;;;2.22;;
55170;SDS011;41060;47.510;8.680;2023-05-15T06:40:33;2.65;;;2.17;;
55170;SDS011;41060;47.510;8.680;2023-05-15T06:43:00;3.65;;;2.10;;
55170;SDS011;41060;47.510;8.680;2023-05-15T06:45:27;5.53;;;2.50;;
55170;SDS011;41060;47.510;8.680;2023-05-15T06:47:54;3.67;;;2.55;;
55170;SDS011;41060;47.510;8.680;2023-05-15T06:50:21;3.38;;;2.03;;
55170;SDS011;41060;47.510;8.680;2023-05-15T06:52:48;3.63;;;2.45;;
55170;SDS011;41060;47.510;8.680;2023-05-15T06:55:15;4.13;;;2.22;;
55170;SDS011;41060;47.510;8.680;2023-05-15T06:57:41;4.25;;;2.15;;
55170;SDS011;41060;47.510;8.680;2023-05-15T07:00:09;3.80;;;2.25;;
55170;SDS011;41060;47.510;8.680;2023-05-15T07:02:36;4.53;;;2.78;;
55170;SDS011;41060;47.510;8.680;2023-05-15T07:05:04;4.97;;;2.50;;
55170;SDS011;41060;47.510;8.680;2023-05-15T07:07:33;3.53;;;2.30;;
55170;SDS011;41060;47.510;8.680;2023-05-15T07:09:59;3.53;;;2.28;;
55170;SDS011;41060;47.510;8.680;2023-05-15T07:12:27;3.25;;;2.30;;
55170;SDS011;41060;47.510;8.680;2023-05-15T07:14:54;3.85;;;2.25;;
55170;SDS011;41060;47.510;8.680;2023-05-15T07:17:21;3.03;;;2.10;;
55170;SDS011;41060;47.510;8.680;2023-05-15T07:19:47;3.75;;;2.33;;
55170;SDS011;41060;47.510;8.680;2023-05-15T07:22:16;3.33;;;2.42;;
55170;SDS011;41060;47.510;8.680;2023-05-15T07:24:42;3.72;;;2.22;;
55170;SDS011;41060;47.510;8.680;2023-05-15T07:27:09;3.45;;;1.90;;
55170;SDS011;41060;47.510;8.680;2023-05-15T07:29:36;2.63;;;1.75;;
55170;SDS011;41060;47.510;8.680;2023-05-15T07:32:02;3.45;;;1.92;;
55170;SDS011;41060;47.510;8.680;2023-05-15T07:34:29;4.63;;;2.70;;
55170;SDS011;41060;47.510;8.680;2023-05-15T07:36:56;4.97;;;2.95;;
55170;SDS011;41060;47.510;8.680;2023-05-15T07:39:24;3.25;;;2.05;;
55170;SDS011;41060;47.510;8.680;2023-05-15T07:41:51;4.13;;;2.78;;
55170;SDS011;41060;47.510;8.680;2023-05-15T07:44:18;3.03;;;2.08;;
55170;SDS011;41060;47.510;8.680;2023-05-15T07:46:44;5.90;;;2.60;;
55170;SDS011;41060;47.510;8.680;2023-05-15T07:49:11;5.50;;;2.40;;
55170;SDS011;41060;47.510;8.680;2023-05-15T07:51:38;2.92;;;2.10;;
55170;SDS011;41060;47.510;8.680;2023-05-15T07:54:04;4.70;;;2.75;;
55170;SDS011;41060;47.510;8.680;2023-05-15T07:56:32;6.40;;;2.63;;
55170;SDS011;41060;47.510;8.680;2023-05-15T07:59:00;3.38;;;2.08;;
55170;SDS011;41060;47.510;8.680;2023-05-15T08:01:26;4.85;;;2.33;;
55170;SDS011;41060;47.510;8.680;2023-05-15T08:03:52;4.60;;;2.65;;
55170;SDS011;41060;47.510;8.680;2023-05-15T08:06:20;3.63;;;2.22;;
55170;SDS011;41060;47.510;8.680;2023-05-15T08:08:46;3.90;;;2.45;;
55170;SDS011;41060;47.510;8.680;2023-05-15T08:11:13;3.80;;;2.67;;
55170;SDS011;41060;47.510;8.680;2023-05-15T08:13:41;4.57;;;2.45;;
55170;SDS011;41060;47.510;8.680;2023-05-15T08:16:08;4.43;;;2.47;;
55170;SDS011;41060;47.510;8.680;2023-05-15T08:18:34;7.30;;;3.10;;
55170;SDS011;41060;47.510;8.680;2023-05-15T08:21:04;5.32;;;2.45;;
55170;SDS011;41060;47.510;8.680;2023-05-15T08:23:31;3.40;;;2.13;;
55170;SDS011;41060;47.510;8.680;2023-05-15T08:25:58;4.68;;;1.75;;
55170;SDS011;41060;47.510;8.680;2023-05-15T08:28:25;4.35;;;2.60;;
55170;SDS011;41060;47.510;8.680;2023-05-15T08:30:55;3.83;;;1.80;;
55170;SDS011;41060;47.510;8.680;2023-05-15T08:33:22;3.30;;;2.13;;
55170;SDS011;41060;47.510;8.680;2023-05-15T08:35:49;4.97;;;2.30;;
55170;SDS011;41060;47.510;8.680;2023-05-15T08:38:15;2.90;;;1.90;;
55170;SDS011;41060;47.510;8.680;2023-05-15T08:40:45;4.47;;;2.20;;
55170;SDS011;41060;47.510;8.680;2023-05-15T08:43:18;2.08;;;1.38;;
55170;SDS011;41060;47.510;8.680;2023-05-15T08:45:47;4.57;;;2.03;;
55170;SDS011;41060;47.510;8.680;2023-05-15T08:48:16;5.10;;;2.10;;
55170;SDS011;41060;47.510;8.680;2023-05-15T08:50:45;3.80;;;2.17;;
55170;SDS011;41060;47.510;8.680;2023-05-15T08:53:12;3.80;;;2.13;;
55170;SDS011;41060;47.510;8.680;2023-05-15T08:55:39;7.45;;;2.40;;
55170;SDS011;41060;47.510;8.680;2023-05-15T08:58:07;2.33;;;1.80;;
55170;SDS011;41060;47.510;8.680;2023-05-15T09:00:37;3.95;;;2.47;;
55170;SDS011;41060;47.510;8.680;2023-05-15T09:03:04;2.97;;;2.10;;
55170;SDS011;41060;47.510;8.680;2023-05-15T09:05:32;4.05;;;1.92;;
55170;SDS011;41060;47.510;8.680;2023-05-15T09:07:59;4.10;;;2.30;;
55170;SDS011;41060;47.510;8.680;2023-05-15T09:10:29;3.65;;;2.17;;
55170;SDS011;41060;47.510;8.680;2023-05-15T09:12:57;3.97;;;2.10;;
55170;SDS011;41060;47.510;8.680;2023-05-15T09:15:26;3.88;;;2.22;;
55170;SDS011;41060;47.510;8.680;2023-05-15T09:17:53;5.13;;;2.03;;
55170;SDS011;41060;47.510;8.680;2023-05-15T09:20:24;4.47;;;1.70;;
55170;SDS011;41060;47.510;8.680;2023-05-15T09:22:53;6.63;;;1.83;;
55170;SDS011;41060;47.510;8.680;2023-05-15T09:25:33;4.00;;;2.13;;
55170;SDS011;41060;47.510;8.680;2023-05-15T09:28:01;4.60;;;2.42;;
55170;SDS011;41060;47.510;8.680;2023-05-15T09:30:28;4.30;;;2.08;;
55170;SDS011;41060;47.510;8.680;2023-05-15T09:32:57;2.97;;;1.73;;
55170;SDS011;41060;47.510;8.680;2023-05-15T09:35:31;4.18;;;2.05;;
55170;SDS011;41060;47.510;8.680;2023-05-15T09:38:02;4.40;;;3.00;;
55170;SDS011;41060;47.510;8.680;2023-05-15T09:40:32;5.13;;;2.45;;
55170;SDS011;41060;47.510;8.680;2023-05-15T09:42:59;4.50;;;2.55;;
55170;SDS011;41060;47.510;8.680;2023-05-15T09:45:28;4.55;;;2.63;;
55170;SDS011;41060;47.510;8.680;2023-05-15T09:47:55;5.05;;;2.42;;
55170;SDS011;41060;47.510;8.680;2023-05-15T09:50:30;3.53;;;1.90;;
55170;SDS011;41060;47.510;8.680;2023-05-15T09:52:59;2.80;;;1.83;;
55170;SDS011;41060;47.510;8.680;2023-05-15T09:55:29;3.15;;;1.83;;
55170;SDS011;41060;47.510;8.680;2023-05-15T09:58:03;2.05;;;1.30;;
55170;SDS011;41060;47.510;8.680;2023-05-15T10:00:31;4.20;;;2.05;;
55170;SDS011;41060;47.510;8.680;2023-05-15T10:03:00;2.75;;;1.75;;
55170;SDS011;41060;47.510;8.680;2023-05-15T10:05:26;2.50;;;1.80;;
55170;SDS011;41060;47.510;8.680;2023-05-15T10:07:54;3.33;;;2.15;;
55170;SDS011;41060;47.510;8.680;2023-05-15T10:10:21;4.25;;;2.17;;
55170;SDS011;41060;47.510;8.680;2023-05-15T10:12:50;3.22;;;2.10;;
55170;SDS011;41060;47.510;8.680;2023-05-15T10:15:18;2.63;;;1.88;;
55170;SDS011;41060;47.510;8.680;2023-05-15T10:17:45;3.83;;;2.05;;
55170;SDS011;41060;47.510;8.680;2023-05-15T10:20:13;2.65;;;1.60;;
55170;SDS011;41060;47.510;8.680;2023-05-15T10:22:44;2.78;;;1.63;;
55170;SDS011;41060;47.510;8.680;2023-05-15T10:25:12;2.60;;;1.73;;
55170;SDS011;41060;47.510;8.680;2023-05-15T10:27:42;4.53;;;1.75;;
55170;SDS011;41060;47.510;8.680;2023-05-15T10:30:14;4.22;;;2.20;;
55170;SDS011;41060;47.510;8.680;2023-05-15T10:32:42;2.47;;;1.65;;
55170;SDS011;41060;47.510;8.680;2023-05-15T10:35:10;2.70;;;1.77;;
55170;SDS011;41060;47.510;8.680;2023-05-15T10:37:37;3.40;;;1.55;;
55170;SDS011;41060;47.510;8.680;2023-05-15T10:40:05;2.13;;;1.25;;
55170;SDS011;41060;47.510;8.680;2023-05-15T10:42:35;1.95;;;1.45;;
55170;SDS011;41060;47.510;8.680;2023-05-15T10:45:02;3.78;;;1.83;;
55170;SDS011;41060;47.510;8.680;2023-05-15T10:47:34;2.90;;;1.55;;
55170;SDS011;41060;47.510;8.680;2023-05-15T10:50:02;4.25;;;1.80;;
55170;SDS011;41060;47.510;8.680;2023-05-15T10:52:30;2.00;;;1.52;;
55170;SDS011;41060;47.510;8.680;2023-05-15T10:54:58;3.20;;;1.65;;
55170;SDS011;41060;47.510;8.680;2023-05-15T10:57:24;2.88;;;1.30;;
55170;SDS011;41060;47.510;8.680;2023-05-15T10:59:54;2.30;;;1.60;;
55170;SDS011;41060;47.510;8.680;2023-05-15T11:02:21;3.55;;;1.75;;
55170;SDS011;41060;47.510;8.680;2023-05-15T11:04:54;3.45;;;2.28;;
55170;SDS011;41060;47.510;8.680;2023-05-15T11:07:22;2.63;;;1.52;;
55170;SDS011;41060;47.510;8.680;2023-05-15T11:09:50;3.60;;;2.25;;
55170;SDS011;41060;47.510;8.680;2023-05-15T11:12:17;1.92;;;1.27;;
55170;SDS011;41060;47.510;8.680;2023-05-15T11:18:00;2.08;;;1.65;;
55170;SDS011;41060;47.510;8.680;2023-05-15T11:20:33;2.97;;;1.35;;
55170;SDS011;41060;47.510;8.680;2023-05-15T11:23:03;2.42;;;1.42;;
55170;SDS011;41060;47.510;8.680;2023-05-15T11:25:30;2.22;;;1.60;;
55170;SDS011;41060;47.510;8.680;2023-05-15T11:27:57;3.05;;;1.90;;
55170;SDS011;41060;47.510;8.680;2023-05-15T11:30:33;3.35;;;1.48;;
55170;SDS011;41060;47.510;8.680;2023-05-15T11:33:01;6.50;;;1.63;;
55170;SDS011;41060;47.510;8.680;2023-05-15T11:35:34;2.67;;;1.55;;
55170;SDS011;41060;47.510;8.680;2023-05-15T11:38:10;1.88;;;1.48;;
55170;SDS011;41060;47.510;8.680;2023-05-15T11:40:44;3.10;;;1.83;;
55170;SDS011;41060;47.510;8.680;2023-05-15T11:43:16;1.40;;;0.95;;
55170;SDS011;41060;47.510;8.680;2023-05-15T11:45:45;3.13;;;1.92;;
55170;SDS011;41060;47.510;8.680;2023-05-15T11:48:13;2.45;;;1.40;;
55170;SDS011;41060;47.510;8.680;2023-05-15T11:50:43;3.55;;;2.13;;
55170;SDS011;41060;47.510;8.680;2023-05-15T11:53:10;2.92;;;1.63;;
55170;SDS011;41060;47.510;8.680;2023-05-15T11:55:38;2.78;;;1.67;;
55170;SDS011;41060;47.510;8.680;2023-05-15T11:58:09;2.50;;;1.60;;
55170;SDS011;41060;47.510;8.680;2023-05-15T12:00:40;2.40;;;1.58;;
55170;SDS011;41060;47.510;8.680;2023-05-15T12:03:12;2.72;;;1.50;;
55170;SDS011;41060;47.510;8.680;2023-05-15T12:05:43;3.20;;;1.98;;
55170;SDS011;41060;47.510;8.680;2023-05-15T12:08:10;3.25;;;1.40;;
55170;SDS011;41060;47.510;8.680;2023-05-15T12:10:40;1.60;;;1.25;;
55170;SDS011;41060;47.510;8.680;2023-05-15T12:13:09;1.83;;;1.40;;
55170;SDS011;41060;47.510;8.680;2023-05-15T12:15:36;2.42;;;1.48;;
55170;SDS011;41060;47.510;8.680;2023-05-15T12:18:04;1.60;;;1.10;;
55170;SDS011;41060;47.510;8.680;2023-05-15T12:20:33;2.95;;;1.50;;
55170;SDS011;41060;47.510;8.680;2023-05-15T12:23:02;2.42;;;1.48;;
55170;SDS011;41060;47.510;8.680;2023-05-15T12:25:30;2.35;;;1.33;;
55170;SDS011;41060;47.510;8.680;2023-05-15T12:28:01;2.05;;;1.33;;
55170;SDS011;41060;47.510;8.680;2023-05-15T12:30:29;2.30;;;1.30;;
55170;SDS011;41060;47.510;8.680;2023-05-15T12:32:59;3.25;;;1.35;;
55170;SDS011;41060;47.510;8.680;2023-05-15T12:35:27;4.40;;;1.50;;
55170;SDS011;41060;47.510;8.680;2023-05-15T12:37:53;2.45;;;1.42;;
55170;SDS011;41060;47.510;8.680;2023-05-15T12:40:22;2.58;;;1.33;;
55170;SDS011;41060;47.510;8.680;2023-05-15T12:42:52;3.38;;;1.40;;
55170;SDS011;41060;47.510;8.680;2023-05-15T12:45:20;6.55;;;1.35;;
55170;SDS011;41060;47.510;8.680;2023-05-15T12:47:51;1.95;;;1.25;;
55170;SDS011;41060;47.510;8.680;2023-05-15T12:50:20;3.47;;;1.17;;
55170;SDS011;41060;47.510;8.680;2023-05-15T12:52:51;3.15;;;1.40;;
55170;SDS011;41060;47.510;8.680;2023-05-15T12:55:22;1.98;;;1.23;;
55170;SDS011;41060;47.510;8.680;2023-05-15T12:57:50;2.35;;;1.30;;
55170;SDS011;41060;47.510;8.680;2023-05-15T13:00:21;1.73;;;1.23;;
55170;SDS011;41060;47.510;8.680;2023-05-15T13:02:48;1.80;;;1.33;;
55170;SDS011;41060;47.510;8.680;2023-05-15T13:05:15;2.00;;;1.23;;
55170;SDS011;41060;47.510;8.680;2023-05-15T13:07:45;2.17;;;1.25;;
55170;SDS011;41060;47.510;8.680;2023-05-15T13:10:12;2.63;;;1.27;;
55170;SDS011;41060;47.510;8.680;2023-05-15T13:12:43;2.55;;;1.50;;
55170;SDS011;41060;47.510;8.680;2023-05-15T13:15:21;1.70;;;1.27;;
55170;SDS011;41060;47.510;8.680;2023-05-15T13:17:53;2.15;;;1.15;;
55170;SDS011;41060;47.510;8.680;2023-05-15T13:20:24;1.25;;;0.88;;
55170;SDS011;41060;47.510;8.680;2023-05-15T13:22:52;1.40;;;0.77;;
55170;SDS011;41060;47.510;8.680;2023-05-15T13:25:18;2.15;;;0.80;;
55170;SDS011;41060;47.510;8.680;2023-05-15T13:27:47;1.20;;;0.82;;
55170;SDS011;41060;47.510;8.680;2023-05-15T13:30:14;0.98;;;0.68;;
55170;SDS011;41060;47.510;8.680;2023-05-15T13:32:42;1.77;;;1.00;;
55170;SDS011;41060;47.510;8.680;2023-05-15T13:35:09;2.50;;;1.15;;
55170;SDS011;41060;47.510;8.680;2023-05-15T13:37:36;2.08;;;1.00;;
55170;SDS011;41060;47.510;8.680;2023-05-15T13:40:03;1.98;;;1.00;;
55170;SDS011;41060;47.510;8.680;2023-05-15T13:42:34;2.95;;;1.15;;
55170;SDS011;41060;47.510;8.680;2023-05-15T13:45:06;1.90;;;0.98;;
55170;SDS011;41060;47.510;8.680;2023-05-15T13:47:35;6.55;;;1.30;;
55170;SDS011;41060;47.510;8.680;2023-05-15T13:50:03;1.10;;;0.88;;
55170;SDS011;41060;47.510;8.680;2023-05-15T13:52:30;1.08;;;0.73;;
55170;SDS011;41060;47.510;8.680;2023-05-15T13:54:57;2.53;;;0.93;;
55170;SDS011;41060;47.510;8.680;2023-05-15T13:57:24;1.75;;;1.00;;
55170;SDS011;41060;47.510;8.680;2023-05-15T13:59:50;0.95;;;0.75;;
55170;SDS011;41060;47.510;8.680;2023-05-15T14:02:20;1.67;;;1.00;;
55170;SDS011;41060;47.510;8.680;2023-05-15T14:04:50;1.50;;;0.85;;
55170;SDS011;41060;47.510;8.680;2023-05-15T14:07:17;1.33;;;0.50;;
55170;SDS011;41060;47.510;8.680;2023-05-15T14:09:50;1.42;;;0.73;;
55170;SDS011;41060;47.510;8.680;2023-05-15T14:12:17;3.10;;;1.35;;
55170;SDS011;41060;47.510;8.680;2023-05-15T14:14:43;3.25;;;0.90;;
55170;SDS011;41060;47.510;8.680;2023-05-15T14:17:11;2.60;;;1.02;;
55170;SDS011;41060;47.510;8.680;2023-05-15T14:19:39;1.98;;;0.80;;
55170;SDS011;41060;47.510;8.680;2023-05-15T14:22:06;1.77;;;1.17;;
55170;SDS011;41060;47.510;8.680;2023-05-15T14:24:33;1.42;;;0.77;;
55170;SDS011;41060;47.510;8.680;2023-05-15T14:27:00;2.17;;;1.25;;
55170;SDS011;41060;47.510;8.680;2023-05-15T14:29:26;1.45;;;0.82;;
55170;SDS011;41060;47.510;8.680;2023-05-15T14:31:54;0.95;;;0.65;;
55170;SDS011;41060;47.510;8.680;2023-05-15T14:34:20;1.00;;;0.80;;
55170;SDS011;41060;47.510;8.680;2023-05-15T14:36:48;1.50;;;0.80;;
55170;SDS011;41060;47.510;8.680;2023-05-15T14:39:16;1.60;;;0.93;;
55170;SDS011;41060;47.510;8.680;2023-05-15T14:41:44;2.10;;;0.90;;
55170;SDS011;41060;47.510;8.680;2023-05-15T14:44:10;3.47;;;1.10;;
55170;SDS011;41060;47.510;8.680;2023-05-15T14:46:40;1.38;;;0.73;;
55170;SDS011;41060;47.510;8.680;2023-05-15T14:49:07;2.25;;;0.80;;
55170;SDS011;41060;47.510;8.680;2023-05-15T14:51:33;1.50;;;0.80;;
55170;SDS011;41060;47.510;8.680;2023-05-15T14:54:02;1.42;;;0.95;;
55170;SDS011;41060;47.510;8.680;2023-05-15T14:56:29;1.65;;;0.77;;
55170;SDS011;41060;47.510;8.680;2023-05-15T14:58:56;1.77;;;1.00;;